Time;durP1;ratioP1;P1;durP2;ratioP2;P2;SDS_P1;SDS_P2;PMS_P1;PMS_P2;Temp;Humidity;BMP_temperature;BMP_pressure;BME280_temperature;BME280_humidity;BME280_pressure;Samples;Min_cycle;Max_cycle;Signal;HPM_P1;HPM_P2
2022/01/23 00:00:20;;;;;;;5.38;4.20;;;18.30;58.00;;;;;;5027772;28;20060;-64
2022/01/23 00:02:38;;;;;;;5.78;4.38;;;18.30;57.90;;;;;;5047184;28;21262;-64
2022/01/23 00:05:08;;;;;;;4.50;4.10;;;18.30;57.90;;;;;;5044041;28;20021;-65
2022/01/23 00:07:34;;;;;;;4.60;3.47;;;18.30;57.90;;;;;;5040291;28;20033;-64
2022/01/23 00:10:04;;;;;;;5.65;3.83;;;18.30;57.90;;;;;;5022888;28;20029;-66
2022/01/23 00:12:33;;;;;;;4.47;3.70;;;18.30;57.80;;;;;;5039429;28;20022;-74
2022/01/23 00:17:43;;;;;;;4.72;3.50;;;18.30;58.00;;;;;;5038354;28;20024;-68
2022/01/23 00:20:10;;;;;;;4.03;3.60;;;18.30;58.20;;;;;;5038408;28;20037;-73
2022/01/23 00:22:45;;;;;;;4.45;3.72;;;18.30;57.90;;;;;;5019358;28;20055;-70
2022/01/23 00:30:40;;;;;;;4.15;3.67;;;18.30;58.00;;;;;;5090412;28;20065;-71
2022/01/23 00:33:06;;;;;;;5.05;3.67;;;18.30;57.90;;;;;;5085479;28;20019;-71
2022/01/23 00:35:33;;;;;;;5.13;3.22;;;18.30;57.90;;;;;;5065858;28;20029;-71
2022/01/23 00:37:59;;;;;;;4.35;3.30;;;18.30;57.90;;;;;;5087563;28;20090;-72
2022/01/23 00:40:26;;;;;;;3.90;3.55;;;18.30;57.90;;;;;;5098151;28;20020;-72
2022/01/23 00:42:54;;;;;;;5.53;3.42;;;18.30;57.80;;;;;;5079240;28;20598;-71
2022/01/23 00:48:00;;;;;;;3.97;3.25;;;18.30;57.80;;;;;;5083216;28;20020;-74
2022/01/23 00:50:27;;;;;;;3.67;3.30;;;18.30;57.90;;;;;;5074589;28;20066;-74
2022/01/23 00:52:53;;;;;;;3.78;3.22;;;18.30;57.90;;;;;;5080425;28;20017;-73
2022/01/23 00:55:19;;;;;;;5.07;3.10;;;18.30;57.90;;;;;;5078904;28;20039;-77
2022/01/23 00:57:45;;;;;;;5.90;3.10;;;18.30;57.90;;;;;;5095848;28;20107;-77
2022/01/23 01:00:11;;;;;;;4.18;3.40;;;18.30;57.80;;;;;;5077015;28;20028;-77
2022/01/23 01:02:36;;;;;;;3.70;2.90;;;18.30;57.80;;;;;;5080317;28;20111;-76
2022/01/23 01:05:03;;;;;;;4.00;2.92;;;18.20;57.80;;;;;;5084474;28;20104;-70
2022/01/23 01:07:29;;;;;;;3.15;2.85;;;18.30;57.90;;;;;;5080797;28;20020;-70
2022/01/23 01:09:59;;;;;;;5.18;2.80;;;18.20;57.90;;;;;;5079187;28;20052;-70
2022/01/23 01:12:32;;;;;;;4.97;2.60;;;18.20;57.80;;;;;;5088051;28;20046;-70
2022/01/23 01:15:23;;;;;;;2.95;2.63;;;18.20;57.80;;;;;;5078955;28;20025;-69
2022/01/23 01:31:28;;;;;;;3.90;2.70;;;18.10;57.80;;;;;;5085192;28;20085;-70
2022/01/23 01:38:51;;;;;;;3.92;2.75;;;18.10;57.80;;;;;;5091533;28;20166;-70
2022/01/23 01:41:18;;;;;;;3.67;2.78;;;18.10;57.80;;;;;;5076231;28;20050;-70
2022/01/23 01:43:45;;;;;;;4.30;3.00;;;18.10;57.80;;;;;;5088342;28;20385;-70
2022/01/23 01:46:11;;;;;;;3.97;2.70;;;18.10;57.90;;;;;;5076020;28;20023;-70
2022/01/23 01:48:36;;;;;;;2.55;2.35;;;18.10;57.80;;;;;;5081794;28;20024;-70
2022/01/23 01:51:05;;;;;;;3.28;2.50;;;18.10;57.80;;;;;;5084081;28;20024;-70
2022/01/23 01:53:31;;;;;;;5.13;2.50;;;18.10;57.90;;;;;;5074495;28;20104;-70
2022/01/23 01:55:57;;;;;;;3.58;2.70;;;18.00;57.80;;;;;;5086807;28;20108;-70
2022/01/23 02:02:37;;;;;;;3.50;2.55;;;18.00;57.80;;;;;;5090528;28;20036;-70
2022/01/23 02:09:41;;;;;;;3.47;2.75;;;18.00;58.00;;;;;;5080230;28;20027;-69
2022/01/23 02:53:19;;;;;;;2.30;2.10;;;17.70;58.40;;;;;;5075698;28;20531;-69
2022/01/23 02:55:45;;;;;;;2.20;2.00;;;17.70;58.40;;;;;;5075189;28;20031;-69
2022/01/23 02:58:13;;;;;;;2.30;2.10;;;17.70;58.40;;;;;;5074208;28;20552;-69
2022/01/23 03:00:59;;;;;;;2.35;2.15;;;17.70;58.40;;;;;;5077013;28;20103;-70
2022/01/23 03:03:25;;;;;;;2.25;2.05;;;17.60;58.40;;;;;;5080024;28;20023;-70
2022/01/23 03:06:21;;;;;;;2.85;2.10;;;17.60;58.40;;;;;;5084365;28;20391;-70
2022/01/23 03:25:01;;;;;;;2.53;1.80;;;17.50;58.60;;;;;;5078439;28;20035;-70
2022/01/23 03:30:27;;;;;;;3.03;2.20;;;17.60;58.60;;;;;;5085356;28;20089;-70
2022/01/23 03:32:53;;;;;;;2.15;2.05;;;17.50;58.60;;;;;;5077689;28;20024;-69
2022/01/23 03:35:20;;;;;;;2.25;1.95;;;17.50;58.60;;;;;;5089033;28;20013;-70
2022/01/23 03:37:46;;;;;;;2.20;2.00;;;17.50;58.60;;;;;;5089519;28;20035;-70
2022/01/23 03:40:12;;;;;;;1.80;1.70;;;17.50;58.70;;;;;;5093689;28;20467;-70
2022/01/23 03:42:40;;;;;;;2.03;1.65;;;17.50;58.60;;;;;;5093768;28;20085;-70
2022/01/23 03:48:01;;;;;;;2.17;1.85;;;17.50;58.60;;;;;;5093828;28;20406;-70
2022/01/23 03:50:27;;;;;;;1.90;1.60;;;17.50;58.70;;;;;;5094754;28;20081;-70
2022/01/23 03:52:53;;;;;;;1.80;1.70;;;17.50;58.80;;;;;;5093257;28;20028;-70
2022/01/23 03:55:18;;;;;;;2.03;1.83;;;17.50;58.70;;;;;;5093590;28;20024;-70
2022/01/23 03:57:44;;;;;;;2.20;2.00;;;17.50;58.70;;;;;;5087670;28;20078;-70
2022/01/23 04:00:10;;;;;;;2.13;1.80;;;17.50;58.80;;;;;;5092372;28;20024;-69
2022/01/23 04:02:36;;;;;;;1.73;1.63;;;17.50;58.80;;;;;;5094541;28;20402;-69
2022/01/23 04:05:02;;;;;;;2.05;1.92;;;17.50;58.80;;;;;;5094267;28;20024;-70
2022/01/23 04:07:29;;;;;;;1.95;1.73;;;17.50;58.80;;;;;;5093100;28;20028;-70
2022/01/23 04:09:54;;;;;;;1.70;1.60;;;17.50;58.80;;;;;;5094343;28;20024;-70
2022/01/23 04:34:29;;;;;;;2.55;1.77;;;17.30;59.00;;;;;;5093173;28;20398;-70
2022/01/23 05:04:18;;;;;;;1.65;1.55;;;17.30;59.40;;;;;;5071232;28;20023;-70
2022/01/23 05:06:58;;;;;;;1.95;1.55;;;17.30;59.40;;;;;;5071523;28;20103;-70
2022/01/23 05:09:24;;;;;;;1.60;1.50;;;17.20;59.40;;;;;;5072333;28;20048;-70
2022/01/23 05:11:51;;;;;;;1.58;1.48;;;17.30;59.40;;;;;;5071316;28;20032;-70
2022/01/23 05:14:21;;;;;;;1.65;1.50;;;17.30;59.40;;;;;;5054756;28;20021;-70
2022/01/23 05:16:47;;;;;;;1.65;1.55;;;17.30;59.50;;;;;;5055286;28;20024;-70
2022/01/23 05:19:12;;;;;;;1.67;1.58;;;17.30;59.50;;;;;;5070698;28;20439;-70
2022/01/23 05:22:05;;;;;;;1.35;1.25;;;17.30;59.50;;;;;;5054457;28;20455;-70
2022/01/23 05:24:38;;;;;;;1.70;1.55;;;17.30;59.50;;;;;;5072551;28;20021;-70
2022/01/23 05:27:06;;;;;;;1.60;1.50;;;17.20;59.50;;;;;;5071118;28;20029;-70
2022/01/23 05:29:32;;;;;;;1.75;1.60;;;17.30;59.60;;;;;;5070740;28;20499;-70
2022/01/23 05:31:57;;;;;;;1.60;1.50;;;17.20;59.50;;;;;;5071003;28;20039;-70
2022/01/23 05:34:24;;;;;;;1.52;1.42;;;17.20;59.60;;;;;;5070725;28;20442;-70
2022/01/23 05:36:50;;;;;;;1.83;1.40;;;17.20;59.60;;;;;;5081470;28;20547;-70
2022/01/23 05:39:19;;;;;;;2.33;1.25;;;17.20;59.60;;;;;;5091181;28;20505;-70
2022/01/23 05:41:45;;;;;;;1.80;1.70;;;17.20;59.60;;;;;;5090836;28;20034;-70
2022/01/23 05:44:11;;;;;;;3.80;1.40;;;17.20;59.70;;;;;;5090820;28;20103;-70
2022/01/23 05:46:36;;;;;;;2.03;1.77;;;17.20;59.60;;;;;;5092379;28;20020;-70
2022/01/23 05:49:02;;;;;;;1.50;1.40;;;17.20;59.70;;;;;;5091759;28;20032;-70
2022/01/23 05:51:28;;;;;;;1.75;1.45;;;17.20;59.60;;;;;;5091158;28;20024;-70
2022/01/23 05:53:53;;;;;;;3.08;1.35;;;17.20;59.60;;;;;;5092286;28;20026;-70
2022/01/23 05:56:19;;;;;;;1.10;1.10;;;17.20;59.70;;;;;;5091975;28;20028;-70
2022/01/23 05:58:44;;;;;;;1.60;1.50;;;17.20;59.70;;;;;;5091106;28;20021;-70
2022/01/23 06:01:10;;;;;;;1.35;1.25;;;17.20;60.60;;;;;;5092000;28;20020;-70
2022/01/23 06:03:36;;;;;;;2.42;1.52;;;17.20;59.70;;;;;;5090707;28;20559;-70
2022/01/23 06:06:01;;;;;;;2.05;1.40;;;17.20;59.70;;;;;;5090996;28;20541;-70
2022/01/23 06:08:27;;;;;;;1.73;1.25;;;17.20;59.70;;;;;;5090754;28;20498;-70
2022/01/23 06:10:54;;;;;;;1.30;1.20;;;17.20;59.70;;;;;;5090505;28;20073;-70
2022/01/23 06:13:20;;;;;;;1.38;1.27;;;17.20;59.80;;;;;;5092046;28;20016;-70
2022/01/23 06:15:46;;;;;;;1.05;1.05;;;17.20;59.80;;;;;;5092019;28;20031;-70
2022/01/23 06:18:11;;;;;;;1.35;1.27;;;17.20;59.80;;;;;;5090490;28;20020;-70
2022/01/23 06:20:37;;;;;;;1.48;1.35;;;17.20;59.80;;;;;;5087778;28;20036;-70
2022/01/23 06:23:02;;;;;;;1.40;1.30;;;17.20;59.80;;;;;;5071568;28;20491;-70
2022/01/23 06:25:33;;;;;;;1.25;1.15;;;17.20;59.80;;;;;;5070416;28;20039;-70
2022/01/23 06:27:59;;;;;;;1.20;1.20;;;17.20;59.80;;;;;;5070417;28;20040;-69
2022/01/23 06:30:25;;;;;;;1.55;1.45;;;17.10;59.90;;;;;;5070265;28;20094;-69
2022/01/23 06:32:50;;;;;;;1.55;1.30;;;17.10;59.90;;;;;;5053607;28;20020;-69
2022/01/23 06:35:16;;;;;;;1.60;1.50;;;17.10;59.90;;;;;;5070426;28;20039;-69
2022/01/23 06:37:41;;;;;;;1.30;1.20;;;17.10;59.90;;;;;;5086917;28;20792;-69
2022/01/23 06:40:07;;;;;;;1.45;1.35;;;17.10;59.90;;;;;;5091605;28;20482;-69
2022/01/23 06:42:33;;;;;;;2.17;1.40;;;17.10;60.00;;;;;;5091855;28;20026;-69
2022/01/23 06:44:59;;;;;;;1.60;1.15;;;17.10;60.00;;;;;;5091693;28;20393;-69
2022/01/23 06:47:25;;;;;;;2.40;1.35;;;17.10;60.00;;;;;;5090325;28;20024;-69
2022/01/23 06:49:51;;;;;;;1.40;1.27;;;17.10;60.00;;;;;;5090375;28;20416;-69
2022/01/23 06:52:16;;;;;;;1.98;1.23;;;17.10;60.00;;;;;;5090535;28;20394;-70
2022/01/23 06:54:42;;;;;;;2.72;1.33;;;17.10;60.10;;;;;;5095401;28;20031;-70
2022/01/23 06:57:07;;;;;;;1.15;1.02;;;17.10;60.00;;;;;;5095174;28;20054;-70
2022/01/23 06:59:33;;;;;;;1.30;1.20;;;17.10;60.00;;;;;;5094853;28;20440;-70
2022/01/23 07:01:59;;;;;;;1.35;1.25;;;17.10;60.10;;;;;;5095094;28;20027;-69
2022/01/23 07:04:24;;;;;;;1.13;1.10;;;17.10;60.10;;;;;;5093614;28;20028;-70
2022/01/23 07:06:51;;;;;;;1.40;1.20;;;17.10;60.20;;;;;;5093911;28;20445;-70
2022/01/23 07:09:17;;;;;;;1.23;1.13;;;17.10;60.20;;;;;;5094994;28;20020;-70
2022/01/23 07:11:44;;;;;;;1.30;1.20;;;17.10;60.20;;;;;;5094920;28;20013;-69
2022/01/23 07:14:10;;;;;;;1.77;1.20;;;17.00;60.10;;;;;;5093175;28;20016;-70
2022/01/23 07:16:35;;;;;;;1.15;1.08;;;17.10;60.20;;;;;;5093747;28;20017;-70
2022/01/23 07:19:01;;;;;;;1.27;1.25;;;17.00;60.20;;;;;;5093593;28;20056;-69
2022/01/23 07:21:27;;;;;;;1.35;1.25;;;17.00;60.20;;;;;;5083533;28;20426;-69
2022/01/23 07:23:52;;;;;;;1.63;1.20;;;17.10;60.40;;;;;;5082522;28;20060;-69
2022/01/23 07:26:20;;;;;;;2.08;1.40;;;17.00;60.30;;;;;;5092695;28;20024;-69
2022/01/23 07:28:46;;;;;;;1.65;1.45;;;17.10;60.30;;;;;;5092685;28;20046;-69
2022/01/23 07:31:20;;;;;;;1.50;1.40;;;17.00;60.30;;;;;;5093186;28;20012;-69
2022/01/23 07:33:46;;;;;;;1.80;1.10;;;17.00;60.40;;;;;;5090967;28;20469;-69
2022/01/23 07:36:11;;;;;;;2.65;1.27;;;17.10;60.50;;;;;;5092702;28;20018;-69
2022/01/23 07:38:37;;;;;;;2.92;1.10;;;17.10;60.50;;;;;;5092858;28;20012;-69
2022/01/23 07:41:03;;;;;;;1.38;1.27;;;17.00;60.50;;;;;;5092448;28;20027;-69
2022/01/23 07:43:28;;;;;;;1.92;1.40;;;17.00;60.50;;;;;;5082314;28;20033;-70
2022/01/23 07:45:54;;;;;;;3.03;1.40;;;17.10;60.50;;;;;;5087623;28;20052;-70
2022/01/23 07:48:19;;;;;;;1.25;1.15;;;17.00;60.50;;;;;;5077026;28;20093;-70
2022/01/23 07:50:45;;;;;;;1.42;1.17;;;17.00;60.50;;;;;;5088839;28;20619;-70
2022/01/23 07:53:11;;;;;;;1.50;1.40;;;17.00;60.50;;;;;;5086955;28;20028;-70
2022/01/23 07:55:36;;;;;;;1.20;1.10;;;17.00;60.50;;;;;;5077466;28;20024;-69
2022/01/23 07:58:12;;;;;;;1.60;1.50;;;17.00;60.50;;;;;;5084817;28;20039;-69
2022/01/23 08:00:38;;;;;;;1.42;1.33;;;17.00;60.50;;;;;;5084882;28;20115;-70
2022/01/23 08:03:04;;;;;;;1.40;1.25;;;17.00;60.50;;;;;;5076461;28;20029;-70
2022/01/23 08:05:30;;;;;;;1.77;1.20;;;17.00;60.50;;;;;;5091569;28;20032;-70
2022/01/23 08:07:55;;;;;;;1.85;1.13;;;17.00;60.50;;;;;;5092770;28;20028;-69
2022/01/23 08:10:21;;;;;;;1.30;1.20;;;17.00;60.60;;;;;;5091809;28;20401;-70
2022/01/23 08:12:47;;;;;;;1.33;1.23;;;17.00;60.60;;;;;;5071466;28;20101;-70
2022/01/23 08:15:13;;;;;;;1.50;1.40;;;17.00;60.60;;;;;;5078347;28;20024;-70
2022/01/23 08:17:38;;;;;;;2.15;1.02;;;17.00;60.60;;;;;;5083400;28;20027;-69
2022/01/23 08:20:06;;;;;;;1.25;1.15;;;17.00;60.70;;;;;;5083392;28;20032;-69
2022/01/23 08:22:32;;;;;;;1.20;1.10;;;17.00;60.70;;;;;;5083677;28;20025;-69
2022/01/23 08:24:58;;;;;;;1.23;1.13;;;17.00;60.70;;;;;;5081502;28;20031;-69
2022/01/23 08:27:24;;;;;;;1.75;1.10;;;17.00;60.70;;;;;;5082309;28;20020;-69
2022/01/23 08:29:50;;;;;;;2.70;1.17;;;17.00;60.70;;;;;;5082141;28;20035;-69
2022/01/23 08:32:15;;;;;;;1.25;1.20;;;17.00;60.70;;;;;;5081966;28;20099;-69
2022/01/23 08:34:41;;;;;;;1.00;1.00;;;17.00;60.80;;;;;;5082667;28;20099;-69
2022/01/23 08:37:07;;;;;;;1.20;1.10;;;17.00;60.80;;;;;;5083511;28;20016;-69
2022/01/23 08:39:36;;;;;;;4.03;1.13;;;17.00;60.80;;;;;;5081210;28;20384;-69
2022/01/23 08:42:03;;;;;;;0.90;0.90;;;17.00;60.80;;;;;;5065523;28;20023;-69
2022/01/23 08:44:29;;;;;;;1.20;1.10;;;17.00;60.90;;;;;;5093581;28;20028;-69
2022/01/23 08:46:55;;;;;;;1.30;1.20;;;17.00;60.90;;;;;;5072665;28;20028;-69
2022/01/23 08:49:21;;;;;;;1.42;1.15;;;17.00;60.90;;;;;;5085420;28;20043;-68
2022/01/23 08:51:48;;;;;;;1.90;1.10;;;17.00;60.90;;;;;;5072272;28;20455;-65
2022/01/23 08:54:14;;;;;;;1.67;1.35;;;17.00;60.90;;;;;;5072442;28;20047;-67
2022/01/23 08:56:39;;;;;;;1.40;1.30;;;17.00;61.00;;;;;;5071948;28;20394;-67
2022/01/23 08:59:05;;;;;;;3.33;1.40;;;16.90;60.90;;;;;;5085431;28;20020;-68
2022/01/23 09:01:32;;;;;;;2.95;1.42;;;17.00;61.00;;;;;;5071161;28;20013;-71
2022/01/23 09:03:57;;;;;;;1.98;1.42;;;17.00;61.00;;;;;;5085251;28;20020;-67
2022/01/23 09:06:24;;;;;;;2.05;1.33;;;17.00;61.00;;;;;;5075375;28;20020;-68
2022/01/23 09:08:51;;;;;;;1.25;1.08;;;16.90;61.00;;;;;;5086748;28;20099;-68
2022/01/23 09:14:07;;;;;;;3.38;1.55;;;17.00;61.00;;;;;;5084524;28;20516;-67
2022/01/23 09:16:51;;;;;;;2.83;1.20;;;16.90;61.00;;;;;;5079276;28;20044;-67
2022/01/23 09:19:17;;;;;;;1.83;1.45;;;17.00;61.00;;;;;;5083202;28;20012;-66
2022/01/23 09:21:43;;;;;;;2.65;1.73;;;16.90;61.00;;;;;;5080438;28;20042;-67
2022/01/23 09:24:09;;;;;;;2.00;1.30;;;17.00;61.00;;;;;;5078326;28;20036;-66
2022/01/23 09:26:36;;;;;;;1.70;1.50;;;16.90;61.10;;;;;;5081225;28;20057;-67
2022/01/23 09:29:12;;;;;;;3.72;1.67;;;16.90;61.00;;;;;;5084197;28;20067;-70
2022/01/23 09:31:49;;;;;;;2.88;1.75;;;17.00;61.00;;;;;;5078236;28;20206;-70
2022/01/23 09:34:19;;;;;;;1.55;1.20;;;16.90;61.00;;;;;;5077561;28;20031;-71
2022/01/23 09:36:44;;;;;;;3.45;1.58;;;17.00;61.00;;;;;;5076382;28;20032;-70
2022/01/23 09:39:14;;;;;;;2.17;1.70;;;16.90;61.00;;;;;;5079742;28;20028;-70
2022/01/23 09:41:42;;;;;;;1.92;1.70;;;16.90;61.00;;;;;;5085893;28;20020;-71
2022/01/23 09:44:07;;;;;;;3.13;1.90;;;16.90;61.00;;;;;;5081503;28;20016;-72
2022/01/23 09:46:33;;;;;;;2.63;2.03;;;16.90;61.00;;;;;;5073583;28;20827;-72
2022/01/23 09:48:58;;;;;;;3.47;2.15;;;16.90;61.00;;;;;;5069309;28;20028;-72
2022/01/23 09:51:25;;;;;;;2.97;2.65;;;16.90;60.90;;;;;;5071110;28;20024;-72
2022/01/23 09:53:54;;;;;;;4.72;2.67;;;16.90;60.90;;;;;;5069064;28;20017;-72
2022/01/23 09:56:30;;;;;;;4.38;3.00;;;16.90;60.90;;;;;;5071326;28;20017;-72
2022/01/23 09:58:56;;;;;;;5.65;3.38;;;16.90;60.90;;;;;;5070419;28;20024;-72
2022/01/23 10:01:23;;;;;;;5.63;3.70;;;16.90;60.90;;;;;;5071266;28;20107;-72
2022/01/23 10:03:51;;;;;;;5.93;3.78;;;16.80;60.70;;;;;;5069170;28;20066;-72
2022/01/23 10:06:17;;;;;;;5.05;3.42;;;16.80;60.80;;;;;;5071294;28;20032;-72
2022/01/23 10:08:43;;;;;;;4.60;3.72;;;16.80;60.80;;;;;;5070804;28;20025;-72
2022/01/23 10:11:12;;;;;;;4.90;3.78;;;16.80;60.70;;;;;;5056680;28;20017;-72
2022/01/23 10:13:39;;;;;;;9.32;4.43;;;16.80;60.70;;;;;;5068880;28;20013;-72
2022/01/23 10:16:05;;;;;;;5.57;4.15;;;16.80;60.70;;;;;;5071284;28;20021;-72
2022/01/23 10:18:31;;;;;;;7.35;4.22;;;16.80;60.70;;;;;;5070929;28;20490;-70
2022/01/23 10:20:57;;;;;;;9.85;5.13;;;16.80;60.70;;;;;;5068908;28;20024;-69
2022/01/23 10:23:23;;;;;;;8.00;4.63;;;16.80;60.70;;;;;;5074022;28;20025;-69
2022/01/23 10:25:51;;;;;;;10.75;6.30;;;16.80;60.70;;;;;;5070865;28;20032;-71
2022/01/23 10:28:19;;;;;;;10.27;6.05;;;16.80;60.70;;;;;;5077061;28;20090;-70
2022/01/23 10:30:51;;;;;;;14.15;7.90;;;16.80;60.70;;;;;;5078081;28;20087;-70
2022/01/23 10:33:17;;;;;;;15.50;8.90;;;16.80;60.20;;;;;;5072837;28;20091;-70
2022/01/23 10:36:02;;;;;;;12.45;8.38;;;16.70;59.80;;;;;;5076203;28;20100;-70
2022/01/23 10:38:50;;;;;;;12.77;8.52;;;16.70;59.10;;;;;;5075891;28;20020;-70
2022/01/23 10:49:49;;;;;;;14.30;9.63;;;16.20;58.30;;;;;;5075210;28;20075;-70
2022/01/23 10:52:47;;;;;;;13.02;9.07;;;16.10;58.40;;;;;;5077958;28;20082;-69
2022/01/23 10:55:33;;;;;;;11.13;8.48;;;16.10;58.00;;;;;;5059911;28;20399;-70
2022/01/23 10:58:01;;;;;;;12.75;9.65;;;16.00;57.90;;;;;;5077468;28;20044;-70
2022/01/23 11:00:30;;;;;;;12.05;8.95;;;15.80;58.20;;;;;;5079043;28;20028;-68
2022/01/23 11:02:57;;;;;;;11.90;9.32;;;15.80;57.90;;;;;;5079168;28;20022;-67
2022/01/23 11:05:32;;;;;;;9.27;8.20;;;15.70;57.90;;;;;;5079971;28;20025;-67
2022/01/23 11:07:57;;;;;;;11.32;8.77;;;15.70;57.60;;;;;;5085587;28;20030;-68
2022/01/23 11:10:23;;;;;;;11.60;8.43;;;15.60;57.40;;;;;;5080405;28;20028;-68
2022/01/23 11:18:03;;;;;;;9.82;8.93;;;15.50;57.50;;;;;;5080558;28;20027;-68
2022/01/23 11:20:37;;;;;;;8.90;7.38;;;15.40;57.40;;;;;;5075976;28;20380;-67
2022/01/23 11:23:22;;;;;;;8.15;6.10;;;15.40;58.00;;;;;;5082646;28;20502;-67
2022/01/23 11:25:56;;;;;;;6.85;5.15;;;15.50;58.60;;;;;;5079171;28;20019;-67
2022/01/23 11:28:32;;;;;;;7.65;5.15;;;15.60;58.90;;;;;;5081314;28;20127;-67
2022/01/23 11:30:58;;;;;;;6.22;4.22;;;15.70;59.00;;;;;;5082477;28;20033;-68
2022/01/23 11:33:23;;;;;;;5.93;4.55;;;15.80;59.20;;;;;;5080036;28;20031;-67
2022/01/23 11:35:49;;;;;;;6.95;4.57;;;15.90;59.20;;;;;;5078969;28;20367;-68
2022/01/23 11:38:18;;;;;;;8.23;4.78;;;16.00;59.20;;;;;;5078366;28;20025;-68
2022/01/23 11:54:42;;;;;;;3.95;3.33;;;16.40;59.10;;;;;;5077294;28;20066;-69
2022/01/23 11:57:45;;;;;;;4.75;3.15;;;16.40;59.20;;;;;;5081763;28;20448;-69
2022/01/23 12:00:17;;;;;;;3.28;2.97;;;16.50;59.20;;;;;;5080389;28;20036;-69
2022/01/23 12:02:44;;;;;;;4.10;3.08;;;16.50;59.10;;;;;;5085351;28;20500;-69
2022/01/23 12:05:14;;;;;;;3.95;3.05;;;16.50;59.10;;;;;;5082909;28;20027;-69
2022/01/23 12:07:41;;;;;;;3.40;2.67;;;16.60;59.10;;;;;;5080142;28;20020;-69
2022/01/23 12:10:28;;;;;;;3.78;2.80;;;16.70;59.20;;;;;;5082095;28;20062;-69
2022/01/23 12:18:48;;;;;;;3.90;2.92;;;16.80;59.20;;;;;;5074687;28;20036;-69
2022/01/23 12:21:27;;;;;;;3.80;2.50;;;16.90;59.20;;;;;;5084358;28;20024;-69
2022/01/23 12:24:06;;;;;;;4.50;2.92;;;17.00;59.20;;;;;;5080763;28;20025;-69
2022/01/23 12:26:32;;;;;;;4.65;3.05;;;17.00;59.20;;;;;;5076314;28;20044;-69
2022/01/23 12:29:24;;;;;;;3.58;2.90;;;17.00;59.20;;;;;;5076129;28;20067;-69
2022/01/23 12:32:10;;;;;;;5.18;2.63;;;17.10;59.20;;;;;;5077386;28;20640;-69
2022/01/23 12:34:56;;;;;;;3.08;2.38;;;17.10;59.30;;;;;;5076857;28;20074;-69
2022/01/23 12:37:22;;;;;;;3.45;2.22;;;17.20;59.20;;;;;;5080654;28;20376;-69
2022/01/23 12:40:37;;;;;;;2.75;2.30;;;17.20;59.20;;;;;;5080908;28;20052;-68
2022/01/23 12:43:24;;;;;;;3.67;2.38;;;17.30;59.20;;;;;;5061687;28;20041;-68
2022/01/23 12:46:05;;;;;;;2.90;1.95;;;17.20;59.20;;;;;;5071901;28;20020;-69
2022/01/23 12:48:38;;;;;;;3.08;1.80;;;17.30;59.20;;;;;;5072862;28;20644;-68
2022/01/23 12:51:03;;;;;;;3.85;2.25;;;17.40;59.20;;;;;;5072239;28;20035;-68
2022/01/23 12:53:36;;;;;;;4.03;2.35;;;17.30;59.20;;;;;;5073065;28;20402;-68
2022/01/23 12:56:05;;;;;;;2.60;2.08;;;17.40;59.10;;;;;;5073495;28;20025;-68
2022/01/23 12:58:33;;;;;;;3.10;1.90;;;17.40;59.10;;;;;;5075924;28;20030;-67
2022/01/23 13:00:59;;;;;;;2.75;2.00;;;17.40;59.10;;;;;;5073067;28;20066;-67
2022/01/23 13:03:26;;;;;;;4.22;2.05;;;17.40;59.10;;;;;;5072517;28;20043;-67
2022/01/23 13:05:52;;;;;;;4.35;2.10;;;17.50;59.10;;;;;;5070138;28;20024;-67
2022/01/23 13:08:23;;;;;;;3.22;2.05;;;17.50;59.10;;;;;;5078104;28;20039;-68
2022/01/23 13:11:09;;;;;;;2.53;2.05;;;17.50;59.00;;;;;;5072471;28;20031;-68
2022/01/23 13:18:44;;;;;;;2.47;1.90;;;17.60;59.00;;;;;;5069680;28;20456;-68
2022/01/23 13:32:40;;;;;;;3.22;2.33;;;17.70;59.00;;;;;;5075026;28;20090;-68
2022/01/23 13:35:11;;;;;;;2.25;1.90;;;17.70;59.00;;;;;;5074239;28;20024;-68
2022/01/23 13:37:38;;;;;;;5.72;2.35;;;17.70;59.00;;;;;;5074828;28;20471;-68
2022/01/23 13:40:20;;;;;;;5.97;2.20;;;17.80;59.10;;;;;;5071309;28;20085;-68
2022/01/23 13:59:14;;;;;;;7.63;2.75;;;18.00;59.30;;;;;;5091730;28;20032;-68
2022/01/23 14:04:46;;;;;;;7.68;2.70;;;18.00;59.20;;;;;;5072309;28;20502;-68
2022/01/23 14:07:15;;;;;;;13.60;3.05;;;18.00;59.30;;;;;;5094684;28;20024;-68
2022/01/23 14:09:45;;;;;;;6.97;3.60;;;18.00;59.30;;;;;;5078730;28;20024;-68
2022/01/23 14:12:15;;;;;;;5.47;2.70;;;18.00;59.20;;;;;;5096128;28;20085;-68
2022/01/23 14:15:00;;;;;;;6.95;3.10;;;18.10;59.30;;;;;;5094696;28;20020;-68
2022/01/23 14:17:28;;;;;;;6.95;2.40;;;18.10;59.30;;;;;;5095922;28;20145;-68
2022/01/23 14:19:59;;;;;;;4.45;2.45;;;18.10;59.30;;;;;;5094960;28;20026;-68
2022/01/23 14:22:29;;;;;;;6.25;2.67;;;18.10;59.30;;;;;;5075378;28;20029;-68
2022/01/23 14:25:25;;;;;;;12.30;3.22;;;18.10;59.30;;;;;;5057887;28;20108;-68
2022/01/23 14:28:10;;;;;;;7.20;3.10;;;18.10;59.20;;;;;;5074043;28;20529;-68
2022/01/23 14:30:44;;;;;;;8.07;2.53;;;18.10;59.30;;;;;;5074087;28;20029;-68
2022/01/23 14:33:16;;;;;;;5.20;2.75;;;18.10;59.30;;;;;;5074275;28;20023;-68
2022/01/23 14:35:42;;;;;;;4.38;2.42;;;18.10;59.30;;;;;;5074178;28;20577;-68
2022/01/23 14:38:21;;;;;;;7.00;3.05;;;18.10;59.30;;;;;;5095468;28;20077;-68
2022/01/23 14:41:23;;;;;;;5.35;2.67;;;18.20;59.30;;;;;;5094612;28;20023;-68
2022/01/23 14:43:48;;;;;;;7.13;2.65;;;18.20;59.20;;;;;;5012939;28;20169;-68
2022/01/23 14:46:14;;;;;;;6.45;2.63;;;18.10;59.30;;;;;;5013353;28;20521;-68
2022/01/23 14:48:50;;;;;;;7.20;2.55;;;18.10;59.40;;;;;;5013558;28;20479;-68
2022/01/23 14:51:20;;;;;;;6.20;2.85;;;18.10;59.30;;;;;;4997764;28;20041;-68
2022/01/23 14:53:46;;;;;;;6.32;2.70;;;18.10;59.30;;;;;;4997425;28;20030;-68
2022/01/23 14:56:13;;;;;;;7.90;2.95;;;18.10;59.20;;;;;;5013130;28;20049;-68
2022/01/23 14:58:39;;;;;;;4.97;2.53;;;18.20;59.30;;;;;;4996960;28;20046;-68
2022/01/23 15:01:07;;;;;;;9.77;3.40;;;18.20;59.20;;;;;;5013323;28;20108;-68
2022/01/23 15:03:33;;;;;;;5.25;2.40;;;18.20;59.20;;;;;;4997063;28;20040;-68
2022/01/23 15:05:59;;;;;;;8.07;2.70;;;18.20;59.20;;;;;;4996728;28;20037;-68
2022/01/23 15:08:25;;;;;;;5.65;2.67;;;18.20;59.20;;;;;;4996621;28;20041;-68
2022/01/23 15:10:53;;;;;;;4.97;2.75;;;18.20;59.20;;;;;;4996588;28;20037;-68
2022/01/23 15:13:22;;;;;;;6.07;2.47;;;18.20;59.20;;;;;;4995382;28;20076;-68
2022/01/23 15:15:49;;;;;;;4.85;2.50;;;18.20;59.10;;;;;;5012880;28;20026;-68
2022/01/23 15:18:15;;;;;;;3.95;2.35;;;18.20;59.10;;;;;;5063814;28;20270;-68
2022/01/23 15:20:40;;;;;;;4.78;2.22;;;18.20;59.10;;;;;;5090281;28;20433;-68
2022/01/23 15:23:06;;;;;;;5.32;2.38;;;18.20;59.20;;;;;;5074543;28;20166;-68
2022/01/23 15:25:32;;;;;;;5.78;2.50;;;18.20;59.10;;;;;;5073358;28;20020;-68
2022/01/23 15:27:58;;;;;;;4.88;2.28;;;18.20;59.10;;;;;;5074097;28;20040;-68
2022/01/23 15:30:25;;;;;;;7.70;2.63;;;18.10;59.00;;;;;;5074142;28;20039;-68
2022/01/23 15:32:51;;;;;;;5.38;2.38;;;18.20;59.00;;;;;;5073266;28;20066;-68
2022/01/23 15:35:17;;;;;;;9.02;2.65;;;18.20;59.00;;;;;;5073394;28;20421;-68
2022/01/23 15:37:43;;;;;;;3.45;2.10;;;18.20;59.00;;;;;;5090971;28;20035;-68
2022/01/23 15:40:12;;;;;;;2.85;2.15;;;18.20;59.00;;;;;;5094601;28;20072;-68
2022/01/23 15:42:41;;;;;;;3.97;2.40;;;18.20;59.00;;;;;;5094045;28;20032;-68
2022/01/23 15:45:07;;;;;;;5.05;2.22;;;18.20;59.00;;;;;;5094374;28;20028;-68
2022/01/23 15:47:33;;;;;;;4.40;2.22;;;18.20;58.90;;;;;;5094276;28;20051;-68
2022/01/23 15:49:58;;;;;;;4.05;2.40;;;18.20;58.90;;;;;;5093193;28;20021;-68
2022/01/23 15:52:24;;;;;;;4.38;2.28;;;18.20;59.00;;;;;;5093985;28;20398;-68
2022/01/23 15:54:49;;;;;;;3.67;2.10;;;18.20;58.90;;;;;;5094349;28;20024;-68
2022/01/23 15:57:16;;;;;;;3.97;2.00;;;18.20;58.90;;;;;;5093849;28;20035;-68
2022/01/23 15:59:41;;;;;;;2.83;2.28;;;18.20;58.90;;;;;;5092964;28;20020;-68
2022/01/23 16:02:07;;;;;;;3.67;1.92;;;18.20;58.90;;;;;;5092990;28;20440;-68
2022/01/23 16:04:35;;;;;;;6.82;2.55;;;18.20;58.90;;;;;;5093769;28;20016;-68
2022/01/23 16:07:03;;;;;;;5.05;2.20;;;18.10;58.80;;;;;;5092927;28;20486;-68
2022/01/23 16:09:28;;;;;;;3.00;2.20;;;18.20;58.80;;;;;;5092343;28;20023;-68
2022/01/23 16:11:54;;;;;;;2.63;1.63;;;18.20;58.80;;;;;;5093658;28;20028;-68
2022/01/23 16:14:20;;;;;;;3.13;1.83;;;18.20;58.80;;;;;;5092390;28;20016;-68
2022/01/23 16:16:47;;;;;;;2.53;1.90;;;18.20;58.80;;;;;;5093774;28;20449;-68
2022/01/23 16:19:12;;;;;;;3.03;2.00;;;18.20;58.80;;;;;;5092614;28;20475;-68
2022/01/23 16:21:38;;;;;;;5.97;2.25;;;18.20;58.70;;;;;;5080930;28;20036;-68
2022/01/23 16:24:04;;;;;;;4.72;2.60;;;18.10;58.70;;;;;;5073297;28;20032;-68
2022/01/23 16:26:30;;;;;;;3.10;1.95;;;18.10;58.70;;;;;;5071705;28;20017;-68
2022/01/23 16:28:55;;;;;;;3.28;2.10;;;18.20;58.70;;;;;;5073072;28;20043;-68
2022/01/23 16:31:21;;;;;;;4.30;2.20;;;18.10;58.70;;;;;;5071779;28;20032;-68
2022/01/23 16:33:47;;;;;;;3.88;1.60;;;18.10;58.70;;;;;;5055331;28;20498;-68
2022/01/23 16:36:12;;;;;;;2.45;1.52;;;18.10;58.70;;;;;;5076064;28;20043;-68